sensor_id;sensor_type;location;lat;lon;timestamp;P1;durP1;ratioP1;P2;durP2;ratioP2
11141;SDS011;5625;50.122;19.864;2023-05-08T00:02:00;4.63;;;4.23;;
11141;SDS011;5625;50.122;19.864;2023-05-08T00:04:28;4.90;;;4.50;;
11141;SDS011;5625;50.122;19.864;2023-05-08T00:06:56;5.20;;;4.80;;
11141;SDS011;5625;50.122;19.864;2023-05-08T00:09:24;4.80;;;4.40;;
11141;SDS011;5625;50.122;19.864;2023-05-08T00:11:52;5.57;;;5.07;;
11141;SDS011;5625;50.122;19.864;2023-05-08T00:14:20;5.40;;;5.00;;
11141;SDS011;5625;50.122;19.864;2023-05-08T00:16:50;5.57;;;4.87;;
11141;SDS011;5625;50.122;19.864;2023-05-08T00:19:18;5.50;;;5.00;;
11141;SDS011;5625;50.122;19.864;2023-05-08T00:21:46;5.27;;;4.87;;
11141;SDS011;5625;50.122;19.864;2023-05-08T00:24:14;5.37;;;4.87;;
11141;SDS011;5625;50.122;19.864;2023-05-08T00:26:42;5.50;;;5.00;;
11141;SDS011;5625;50.122;19.864;2023-05-08T00:29:11;5.00;;;4.60;;
11141;SDS011;5625;50.122;19.864;2023-05-08T00:31:38;5.60;;;5.10;;
11141;SDS011;5625;50.122;19.864;2023-05-08T00:34:08;5.37;;;4.97;;
11141;SDS011;5625;50.122;19.864;2023-05-08T00:36:36;5.70;;;5.20;;
11141;SDS011;5625;50.122;19.864;2023-05-08T00:39:04;6.00;;;4.90;;
11141;SDS011;5625;50.122;19.864;2023-05-08T00:41:32;5.30;;;4.90;;
11141;SDS011;5625;50.122;19.864;2023-05-08T00:44:00;5.43;;;4.97;;
11141;SDS011;5625;50.122;19.864;2023-05-08T00:46:28;5.70;;;5.20;;
11141;SDS011;5625;50.122;19.864;2023-05-08T00:48:58;5.60;;;5.20;;
11141;SDS011;5625;50.122;19.864;2023-05-08T00:51:29;6.03;;;5.10;;
11141;SDS011;5625;50.122;19.864;2023-05-08T00:53:58;5.43;;;4.93;;
11141;SDS011;5625;50.122;19.864;2023-05-08T00:56:29;5.50;;;4.97;;
11141;SDS011;5625;50.122;19.864;2023-05-08T00:58:58;5.60;;;5.17;;
11141;SDS011;5625;50.122;19.864;2023-05-08T01:01:26;5.57;;;4.97;;
11141;SDS011;5625;50.122;19.864;2023-05-08T01:03:55;5.43;;;4.93;;
11141;SDS011;5625;50.122;19.864;2023-05-08T01:06:24;5.50;;;5.00;;
11141;SDS011;5625;50.122;19.864;2023-05-08T01:08:55;5.50;;;5.00;;
11141;SDS011;5625;50.122;19.864;2023-05-08T01:11:25;5.93;;;5.27;;
11141;SDS011;5625;50.122;19.864;2023-05-08T01:14:03;5.63;;;5.13;;
11141;SDS011;5625;50.122;19.864;2023-05-08T01:16:40;5.67;;;5.17;;
11141;SDS011;5625;50.122;19.864;2023-05-08T01:19:20;5.50;;;5.00;;
11141;SDS011;5625;50.122;19.864;2023-05-08T01:22:04;5.53;;;5.03;;
11141;SDS011;5625;50.122;19.864;2023-05-08T01:24:47;5.43;;;4.93;;
11141;SDS011;5625;50.122;19.864;2023-05-08T01:27:46;5.57;;;5.17;;
11141;SDS011;5625;50.122;19.864;2023-05-08T01:30:38;6.07;;;5.47;;
11141;SDS011;5625;50.122;19.864;2023-05-08T01:33:24;5.50;;;5.10;;
11141;SDS011;5625;50.122;19.864;2023-05-08T01:35:59;6.00;;;5.50;;
11141;SDS011;5625;50.122;19.864;2023-05-08T01:38:39;7.03;;;6.17;;
11141;SDS011;5625;50.122;19.864;2023-05-08T01:41:15;5.97;;;5.47;;
11141;SDS011;5625;50.122;19.864;2023-05-08T01:43:47;6.27;;;5.77;;
11141;SDS011;5625;50.122;19.864;2023-05-08T01:46:21;5.77;;;5.37;;
11141;SDS011;5625;50.122;19.864;2023-05-08T01:48:55;5.70;;;5.30;;
11141;SDS011;5625;50.122;19.864;2023-05-08T01:51:31;6.10;;;5.60;;
11141;SDS011;5625;50.122;19.864;2023-05-08T01:54:05;5.80;;;5.30;;
11141;SDS011;5625;50.122;19.864;2023-05-08T01:56:38;5.93;;;5.30;;
11141;SDS011;5625;50.122;19.864;2023-05-08T01:59:10;5.87;;;5.43;;
11141;SDS011;5625;50.122;19.864;2023-05-08T02:01:41;5.07;;;4.60;;
11141;SDS011;5625;50.122;19.864;2023-05-08T02:04:12;5.67;;;5.17;;
11141;SDS011;5625;50.122;19.864;2023-05-08T02:06:41;5.43;;;4.93;;
11141;SDS011;5625;50.122;19.864;2023-05-08T02:09:10;5.27;;;4.87;;
11141;SDS011;5625;50.122;19.864;2023-05-08T02:11:40;5.50;;;5.00;;
11141;SDS011;5625;50.122;19.864;2023-05-08T02:14:10;4.87;;;4.57;;
11141;SDS011;5625;50.122;19.864;2023-05-08T02:16:39;4.53;;;4.23;;
11141;SDS011;5625;50.122;19.864;2023-05-08T02:19:09;4.87;;;4.50;;
11141;SDS011;5625;50.122;19.864;2023-05-08T02:21:40;4.70;;;4.30;;
11141;SDS011;5625;50.122;19.864;2023-05-08T02:24:10;4.93;;;4.53;;
11141;SDS011;5625;50.122;19.864;2023-05-08T02:26:40;4.80;;;4.40;;
11141;SDS011;5625;50.122;19.864;2023-05-08T02:29:10;5.00;;;4.60;;
11141;SDS011;5625;50.122;19.864;2023-05-08T02:31:38;6.03;;;4.67;;
11141;SDS011;5625;50.122;19.864;2023-05-08T02:34:08;4.97;;;4.13;;
11141;SDS011;5625;50.122;19.864;2023-05-08T02:36:37;5.60;;;4.43;;
11141;SDS011;5625;50.122;19.864;2023-05-08T02:39:07;5.13;;;4.63;;
11141;SDS011;5625;50.122;19.864;2023-05-08T02:41:42;4.20;;;3.90;;
11141;SDS011;5625;50.122;19.864;2023-05-08T02:44:11;6.50;;;4.60;;
11141;SDS011;5625;50.122;19.864;2023-05-08T02:46:40;4.87;;;4.50;;
11141;SDS011;5625;50.122;19.864;2023-05-08T02:49:19;5.40;;;4.50;;
11141;SDS011;5625;50.122;19.864;2023-05-08T02:51:56;4.90;;;4.50;;
11141;SDS011;5625;50.122;19.864;2023-05-08T02:54:34;5.93;;;4.43;;
11141;SDS011;5625;50.122;19.864;2023-05-08T02:57:09;6.07;;;4.30;;
11141;SDS011;5625;50.122;19.864;2023-05-08T02:59:50;5.20;;;4.70;;
11141;SDS011;5625;50.122;19.864;2023-05-08T03:02:27;6.27;;;5.70;;
11141;SDS011;5625;50.122;19.864;2023-05-08T03:05:01;5.03;;;4.67;;
11141;SDS011;5625;50.122;19.864;2023-05-08T03:07:33;5.17;;;4.77;;
11141;SDS011;5625;50.122;19.864;2023-05-08T03:10:09;5.10;;;4.60;;
11141;SDS011;5625;50.122;19.864;2023-05-08T03:12:41;4.83;;;4.43;;
11141;SDS011;5625;50.122;19.864;2023-05-08T03:15:14;5.93;;;4.73;;
11141;SDS011;5625;50.122;19.864;2023-05-08T03:17:45;4.90;;;4.50;;
11141;SDS011;5625;50.122;19.864;2023-05-08T03:20:15;4.87;;;4.47;;
11141;SDS011;5625;50.122;19.864;2023-05-08T03:22:45;4.63;;;4.20;;
11141;SDS011;5625;50.122;19.864;2023-05-08T03:25:16;4.93;;;4.43;;
11141;SDS011;5625;50.122;19.864;2023-05-08T03:27:46;4.97;;;4.47;;
11141;SDS011;5625;50.122;19.864;2023-05-08T03:30:15;5.00;;;4.60;;
11141;SDS011;5625;50.122;19.864;2023-05-08T03:32:44;5.23;;;4.73;;
11141;SDS011;5625;50.122;19.864;2023-05-08T03:35:14;7.00;;;4.97;;
11141;SDS011;5625;50.122;19.864;2023-05-08T03:37:42;5.23;;;4.73;;
11141;SDS011;5625;50.122;19.864;2023-05-08T03:40:11;5.13;;;4.73;;
11141;SDS011;5625;50.122;19.864;2023-05-08T03:42:41;5.50;;;5.00;;
11141;SDS011;5625;50.122;19.864;2023-05-08T03:45:10;5.77;;;5.33;;
11141;SDS011;5625;50.122;19.864;2023-05-08T03:47:40;5.63;;;5.13;;
11141;SDS011;5625;50.122;19.864;2023-05-08T03:50:09;5.90;;;5.10;;
11141;SDS011;5625;50.122;19.864;2023-05-08T03:52:38;5.30;;;4.90;;
11141;SDS011;5625;50.122;19.864;2023-05-08T03:55:06;6.03;;;5.57;;
11141;SDS011;5625;50.122;19.864;2023-05-08T03:57:38;8.03;;;6.23;;
11141;SDS011;5625;50.122;19.864;2023-05-08T04:00:13;5.83;;;5.23;;
11141;SDS011;5625;50.122;19.864;2023-05-08T04:02:46;5.43;;;5.03;;
11141;SDS011;5625;50.122;19.864;2023-05-08T04:05:25;6.03;;;5.53;;
11141;SDS011;5625;50.122;19.864;2023-05-08T04:08:02;6.27;;;5.77;;
11141;SDS011;5625;50.122;19.864;2023-05-08T04:10:43;6.83;;;5.27;;
11141;SDS011;5625;50.122;19.864;2023-05-08T04:13:17;7.00;;;5.10;;
11141;SDS011;5625;50.122;19.864;2023-05-08T04:15:48;5.37;;;4.97;;
11141;SDS011;5625;50.122;19.864;2023-05-08T04:18:21;5.70;;;5.30;;
11141;SDS011;5625;50.122;19.864;2023-05-08T04:20:55;5.97;;;5.57;;
11141;SDS011;5625;50.122;19.864;2023-05-08T04:23:24;5.80;;;5.30;;
11141;SDS011;5625;50.122;19.864;2023-05-08T04:25:52;6.60;;;6.00;;
11141;SDS011;5625;50.122;19.864;2023-05-08T04:28:23;6.10;;;5.50;;
11141;SDS011;5625;50.122;19.864;2023-05-08T04:30:51;5.77;;;5.37;;
11141;SDS011;5625;50.122;19.864;2023-05-08T04:33:21;6.20;;;5.63;;
11141;SDS011;5625;50.122;19.864;2023-05-08T04:35:50;5.63;;;5.13;;
11141;SDS011;5625;50.122;19.864;2023-05-08T04:38:19;6.30;;;5.80;;
11141;SDS011;5625;50.122;19.864;2023-05-08T04:40:48;6.47;;;5.87;;
11141;SDS011;5625;50.122;19.864;2023-05-08T04:43:16;6.10;;;5.53;;
11141;SDS011;5625;50.122;19.864;2023-05-08T04:45:46;6.03;;;5.43;;
11141;SDS011;5625;50.122;19.864;2023-05-08T04:48:14;6.53;;;5.87;;
11141;SDS011;5625;50.122;19.864;2023-05-08T04:50:44;5.93;;;5.40;;
11141;SDS011;5625;50.122;19.864;2023-05-08T04:53:15;6.33;;;5.73;;
11141;SDS011;5625;50.122;19.864;2023-05-08T04:55:43;6.00;;;5.43;;
11141;SDS011;5625;50.122;19.864;2023-05-08T04:58:11;6.77;;;6.17;;
11141;SDS011;5625;50.122;19.864;2023-05-08T05:00:39;6.00;;;5.40;;
11141;SDS011;5625;50.122;19.864;2023-05-08T05:03:11;5.77;;;5.27;;
11141;SDS011;5625;50.122;19.864;2023-05-08T05:05:40;5.67;;;5.17;;
11141;SDS011;5625;50.122;19.864;2023-05-08T05:08:08;6.80;;;6.10;;
11141;SDS011;5625;50.122;19.864;2023-05-08T05:10:36;6.67;;;5.97;;
11141;SDS011;5625;50.122;19.864;2023-05-08T05:13:05;6.00;;;5.50;;
11141;SDS011;5625;50.122;19.864;2023-05-08T05:15:36;5.37;;;4.97;;
11141;SDS011;5625;50.122;19.864;2023-05-08T05:18:04;7.97;;;5.17;;
11141;SDS011;5625;50.122;19.864;2023-05-08T05:20:33;5.03;;;4.63;;
11141;SDS011;5625;50.122;19.864;2023-05-08T05:23:02;6.93;;;5.47;;
11141;SDS011;5625;50.122;19.864;2023-05-08T05:25:30;4.97;;;4.37;;
11141;SDS011;5625;50.122;19.864;2023-05-08T05:27:58;5.97;;;5.40;;
11141;SDS011;5625;50.122;19.864;2023-05-08T05:30:28;6.30;;;5.30;;
11141;SDS011;5625;50.122;19.864;2023-05-08T05:32:56;7.53;;;5.27;;
11141;SDS011;5625;50.122;19.864;2023-05-08T05:35:24;5.27;;;4.77;;
11141;SDS011;5625;50.122;19.864;2023-05-08T05:37:53;5.17;;;4.77;;
11141;SDS011;5625;50.122;19.864;2023-05-08T05:40:22;5.80;;;4.43;;
11141;SDS011;5625;50.122;19.864;2023-05-08T05:42:50;6.33;;;5.03;;
11141;SDS011;5625;50.122;19.864;2023-05-08T05:45:19;6.10;;;4.60;;
11141;SDS011;5625;50.122;19.864;2023-05-08T05:47:47;5.20;;;4.80;;
11141;SDS011;5625;50.122;19.864;2023-05-08T05:50:16;5.77;;;4.83;;
11141;SDS011;5625;50.122;19.864;2023-05-08T05:52:44;7.23;;;5.10;;
11141;SDS011;5625;50.122;19.864;2023-05-08T05:55:13;6.47;;;4.97;;
11141;SDS011;5625;50.122;19.864;2023-05-08T05:57:42;5.40;;;4.67;;
11141;SDS011;5625;50.122;19.864;2023-05-08T06:00:10;5.23;;;4.73;;
11141;SDS011;5625;50.122;19.864;2023-05-08T06:02:39;5.30;;;4.80;;
11141;SDS011;5625;50.122;19.864;2023-05-08T06:05:07;7.10;;;4.60;;
11141;SDS011;5625;50.122;19.864;2023-05-08T06:07:36;6.07;;;5.23;;
11141;SDS011;5625;50.122;19.864;2023-05-08T06:10:05;4.70;;;4.30;;
11141;SDS011;5625;50.122;19.864;2023-05-08T06:12:36;9.53;;;5.50;;
11141;SDS011;5625;50.122;19.864;2023-05-08T06:15:04;7.87;;;5.50;;
11141;SDS011;5625;50.122;19.864;2023-05-08T06:17:33;5.40;;;4.90;;
11141;SDS011;5625;50.122;19.864;2023-05-08T06:20:03;6.33;;;5.00;;
11141;SDS011;5625;50.122;19.864;2023-05-08T06:22:32;7.17;;;5.33;;
11141;SDS011;5625;50.122;19.864;2023-05-08T06:25:03;6.10;;;5.47;;
11141;SDS011;5625;50.122;19.864;2023-05-08T06:27:32;6.13;;;4.90;;
11141;SDS011;5625;50.122;19.864;2023-05-08T06:30:02;7.37;;;5.07;;
11141;SDS011;5625;50.122;19.864;2023-05-08T06:32:33;6.73;;;4.90;;
11141;SDS011;5625;50.122;19.864;2023-05-08T06:35:01;6.53;;;4.53;;
11141;SDS011;5625;50.122;19.864;2023-05-08T06:37:31;5.27;;;4.77;;
11141;SDS011;5625;50.122;19.864;2023-05-08T06:40:02;6.37;;;5.27;;
11141;SDS011;5625;50.122;19.864;2023-05-08T06:42:38;7.23;;;4.97;;
11141;SDS011;5625;50.122;19.864;2023-05-08T06:45:08;5.17;;;4.77;;
11141;SDS011;5625;50.122;19.864;2023-05-08T06:47:37;5.93;;;4.93;;
11141;SDS011;5625;50.122;19.864;2023-05-08T06:50:05;4.67;;;4.27;;
11141;SDS011;5625;50.122;19.864;2023-05-08T06:52:33;5.93;;;4.77;;
11141;SDS011;5625;50.122;19.864;2023-05-08T06:55:02;5.40;;;4.90;;
11141;SDS011;5625;50.122;19.864;2023-05-08T06:57:30;5.00;;;4.60;;
11141;SDS011;5625;50.122;19.864;2023-05-08T06:59:58;5.23;;;4.43;;
11141;SDS011;5625;50.122;19.864;2023-05-08T07:02:27;4.27;;;3.93;;
11141;SDS011;5625;50.122;19.864;2023-05-08T07:04:55;5.93;;;3.87;;
11141;SDS011;5625;50.122;19.864;2023-05-08T07:07:23;5.30;;;4.07;;
11141;SDS011;5625;50.122;19.864;2023-05-08T07:09:51;5.30;;;4.10;;
11141;SDS011;5625;50.122;19.864;2023-05-08T07:12:21;5.57;;;4.00;;
11141;SDS011;5625;50.122;19.864;2023-05-08T07:14:49;5.20;;;4.40;;
11141;SDS011;5625;50.122;19.864;2023-05-08T07:17:17;4.47;;;4.07;;
11141;SDS011;5625;50.122;19.864;2023-05-08T07:19:49;4.73;;;4.43;;
11141;SDS011;5625;50.122;19.864;2023-05-08T07:22:18;4.70;;;3.87;;
11141;SDS011;5625;50.122;19.864;2023-05-08T07:24:47;4.93;;;4.00;;
11141;SDS011;5625;50.122;19.864;2023-05-08T07:27:15;4.20;;;3.80;;
11141;SDS011;5625;50.122;19.864;2023-05-08T07:29:43;4.10;;;3.33;;
11141;SDS011;5625;50.122;19.864;2023-05-08T07:32:11;3.73;;;3.40;;
11141;SDS011;5625;50.122;19.864;2023-05-08T07:34:40;9.13;;;3.93;;
11141;SDS011;5625;50.122;19.864;2023-05-08T07:37:09;3.53;;;3.27;;
11141;SDS011;5625;50.122;19.864;2023-05-08T07:39:38;6.90;;;3.67;;
11141;SDS011;5625;50.122;19.864;2023-05-08T07:42:06;4.17;;;3.77;;
11141;SDS011;5625;50.122;19.864;2023-05-08T07:44:34;4.63;;;3.37;;
11141;SDS011;5625;50.122;19.864;2023-05-08T07:47:17;4.47;;;3.87;;
11141;SDS011;5625;50.122;19.864;2023-05-08T07:49:45;3.83;;;3.53;;
11141;SDS011;5625;50.122;19.864;2023-05-08T07:52:14;3.63;;;3.33;;
11141;SDS011;5625;50.122;19.864;2023-05-08T07:54:42;3.47;;;3.17;;
11141;SDS011;5625;50.122;19.864;2023-05-08T07:57:11;3.50;;;3.20;;
11141;SDS011;5625;50.122;19.864;2023-05-08T07:59:39;5.57;;;3.20;;
11141;SDS011;5625;50.122;19.864;2023-05-08T08:02:07;3.70;;;3.10;;
11141;SDS011;5625;50.122;19.864;2023-05-08T08:04:35;3.87;;;3.57;;
11141;SDS011;5625;50.122;19.864;2023-05-08T08:07:04;3.50;;;3.20;;
11141;SDS011;5625;50.122;19.864;2023-05-08T08:09:36;3.93;;;3.37;;
11141;SDS011;5625;50.122;19.864;2023-05-08T08:12:04;4.70;;;3.10;;
11141;SDS011;5625;50.122;19.864;2023-05-08T08:14:33;5.93;;;3.57;;
11141;SDS011;5625;50.122;19.864;2023-05-08T08:17:01;3.13;;;2.87;;
11141;SDS011;5625;50.122;19.864;2023-05-08T08:19:31;4.70;;;3.60;;
11141;SDS011;5625;50.122;19.864;2023-05-08T08:21:59;4.93;;;3.90;;
11141;SDS011;5625;50.122;19.864;2023-05-08T08:24:29;4.80;;;3.57;;
11141;SDS011;5625;50.122;19.864;2023-05-08T08:27:01;4.00;;;3.70;;
11141;SDS011;5625;50.122;19.864;2023-05-08T08:29:29;3.63;;;3.23;;
11141;SDS011;5625;50.122;19.864;2023-05-08T08:31:57;3.53;;;3.20;;
11141;SDS011;5625;50.122;19.864;2023-05-08T08:34:28;5.80;;;3.33;;
11141;SDS011;5625;50.122;19.864;2023-05-08T08:36:56;3.50;;;3.20;;
11141;SDS011;5625;50.122;19.864;2023-05-08T08:39:24;3.23;;;2.70;;
11141;SDS011;5625;50.122;19.864;2023-05-08T08:41:53;3.50;;;3.20;;
11141;SDS011;5625;50.122;19.864;2023-05-08T08:44:23;3.00;;;2.77;;
11141;SDS011;5625;50.122;19.864;2023-05-08T08:46:51;3.40;;;3.10;;
11141;SDS011;5625;50.122;19.864;2023-05-08T08:49:22;3.37;;;2.57;;
11141;SDS011;5625;50.122;19.864;2023-05-08T08:51:56;3.20;;;2.90;;
11141;SDS011;5625;50.122;19.864;2023-05-08T08:54:28;3.53;;;2.80;;
11141;SDS011;5625;50.122;19.864;2023-05-08T08:57:00;3.40;;;3.10;;
11141;SDS011;5625;50.122;19.864;2023-05-08T08:59:33;3.00;;;2.53;;
11141;SDS011;5625;50.122;19.864;2023-05-08T09:02:05;3.10;;;2.70;;
11141;SDS011;5625;50.122;19.864;2023-05-08T09:04:36;3.93;;;3.30;;
11141;SDS011;5625;50.122;19.864;2023-05-08T09:07:04;4.07;;;2.80;;
11141;SDS011;5625;50.122;19.864;2023-05-08T09:09:34;3.40;;;2.93;;
11141;SDS011;5625;50.122;19.864;2023-05-08T09:12:06;3.20;;;2.90;;
11141;SDS011;5625;50.122;19.864;2023-05-08T09:14:36;4.03;;;3.17;;
11141;SDS011;5625;50.122;19.864;2023-05-08T09:17:04;3.00;;;2.70;;
11141;SDS011;5625;50.122;19.864;2023-05-08T09:19:32;3.50;;;2.97;;
11141;SDS011;5625;50.122;19.864;2023-05-08T09:22:01;3.20;;;2.90;;
11141;SDS011;5625;50.122;19.864;2023-05-08T09:27:23;3.70;;;2.77;;
11141;SDS011;5625;50.122;19.864;2023-05-08T09:30:00;3.13;;;2.87;;
11141;SDS011;5625;50.122;19.864;2023-05-08T09:32:30;3.13;;;2.77;;
11141;SDS011;5625;50.122;19.864;2023-05-08T09:34:59;3.20;;;2.90;;
11141;SDS011;5625;50.122;19.864;2023-05-08T09:37:28;3.50;;;3.20;;
11141;SDS011;5625;50.122;19.864;2023-05-08T09:40:14;4.17;;;3.27;;
11141;SDS011;5625;50.122;19.864;2023-05-08T09:42:44;3.47;;;2.80;;
11141;SDS011;5625;50.122;19.864;2023-05-08T09:45:24;3.93;;;3.17;;
11141;SDS011;5625;50.122;19.864;2023-05-08T09:47:53;5.33;;;3.43;;
11141;SDS011;5625;50.122;19.864;2023-05-08T09:50:21;3.27;;;3.07;;
11141;SDS011;5625;50.122;19.864;2023-05-08T09:52:50;3.77;;;3.47;;
11141;SDS011;5625;50.122;19.864;2023-05-08T09:55:21;3.83;;;3.13;;
11141;SDS011;5625;50.122;19.864;2023-05-08T09:57:53;3.87;;;3.03;;
11141;SDS011;5625;50.122;19.864;2023-05-08T10:00:23;3.50;;;3.20;;
11141;SDS011;5625;50.122;19.864;2023-05-08T10:02:53;4.77;;;3.67;;
11141;SDS011;5625;50.122;19.864;2023-05-08T10:05:23;3.90;;;3.30;;
11141;SDS011;5625;50.122;19.864;2023-05-08T10:07:52;3.90;;;3.50;;
11141;SDS011;5625;50.122;19.864;2023-05-08T10:10:21;4.07;;;3.63;;
11141;SDS011;5625;50.122;19.864;2023-05-08T10:12:52;4.73;;;3.43;;
11141;SDS011;5625;50.122;19.864;2023-05-08T10:15:20;6.50;;;3.30;;
11141;SDS011;5625;50.122;19.864;2023-05-08T10:17:56;3.53;;;3.23;;
11141;SDS011;5625;50.122;19.864;2023-05-08T10:20:30;6.17;;;3.00;;
11141;SDS011;5625;50.122;19.864;2023-05-08T10:22:59;5.00;;;3.20;;
11141;SDS011;5625;50.122;19.864;2023-05-08T10:25:30;4.53;;;3.30;;
11141;SDS011;5625;50.122;19.864;2023-05-08T10:28:05;5.00;;;3.40;;
11141;SDS011;5625;50.122;19.864;2023-05-08T10:30:43;3.80;;;3.30;;
11141;SDS011;5625;50.122;19.864;2023-05-08T10:33:15;5.77;;;2.60;;
11141;SDS011;5625;50.122;19.864;2023-05-08T10:35:47;3.40;;;3.00;;
11141;SDS011;5625;50.122;19.864;2023-05-08T10:38:16;4.17;;;3.13;;
11141;SDS011;5625;50.122;19.864;2023-05-08T10:40:45;3.97;;;2.90;;
11141;SDS011;5625;50.122;19.864;2023-05-08T10:43:15;4.83;;;3.20;;
11141;SDS011;5625;50.122;19.864;2023-05-08T10:45:46;4.47;;;3.33;;
11141;SDS011;5625;50.122;19.864;2023-05-08T10:48:18;3.17;;;2.97;;
11141;SDS011;5625;50.122;19.864;2023-05-08T10:50:55;4.03;;;2.90;;
11141;SDS011;5625;50.122;19.864;2023-05-08T10:53:30;4.50;;;2.70;;
11141;SDS011;5625;50.122;19.864;2023-05-08T10:56:03;3.00;;;2.80;;
11141;SDS011;5625;50.122;19.864;2023-05-08T10:58:32;4.63;;;3.03;;
11141;SDS011;5625;50.122;19.864;2023-05-08T11:01:13;2.70;;;2.50;;
11141;SDS011;5625;50.122;19.864;2023-05-08T11:03:43;2.73;;;2.53;;
11141;SDS011;5625;50.122;19.864;2023-05-08T11:06:17;4.17;;;2.70;;
11141;SDS011;5625;50.122;19.864;2023-05-08T11:09:05;3.20;;;2.53;;
11141;SDS011;5625;50.122;19.864;2023-05-08T11:11:35;7.40;;;2.50;;
11141;SDS011;5625;50.122;19.864;2023-05-08T11:14:12;5.67;;;2.63;;
11141;SDS011;5625;50.122;19.864;2023-05-08T11:19:32;4.10;;;2.30;;
11141;SDS011;5625;50.122;19.864;2023-05-08T11:22:13;4.83;;;2.30;;
11141;SDS011;5625;50.122;19.864;2023-05-08T11:24:46;2.40;;;2.17;;
11141;SDS011;5625;50.122;19.864;2023-05-08T11:27:16;5.67;;;2.30;;
11141;SDS011;5625;50.122;19.864;2023-05-08T11:29:44;2.43;;;2.23;;
11141;SDS011;5625;50.122;19.864;2023-05-08T11:32:56;2.60;;;2.40;;
11141;SDS011;5625;50.122;19.864;2023-05-08T11:38:16;3.53;;;2.50;;
11141;SDS011;5625;50.122;19.864;2023-05-08T11:40:47;2.70;;;2.50;;
11141;SDS011;5625;50.122;19.864;2023-05-08T11:43:18;3.13;;;2.60;;
11141;SDS011;5625;50.122;19.864;2023-05-08T11:46:07;5.27;;;2.80;;
11141;SDS011;5625;50.122;19.864;2023-05-08T11:48:43;3.20;;;2.60;;
11141;SDS011;5625;50.122;19.864;2023-05-08T11:51:11;3.73;;;2.40;;
11141;SDS011;5625;50.122;19.864;2023-05-08T11:53:39;2.40;;;2.20;;
11141;SDS011;5625;50.122;19.864;2023-05-08T11:56:09;2.60;;;2.40;;
11141;SDS011;5625;50.122;19.864;2023-05-08T11:58:37;2.87;;;2.20;;
11141;SDS011;5625;50.122;19.864;2023-05-08T12:01:05;3.07;;;2.03;;
11141;SDS011;5625;50.122;19.864;2023-05-08T12:03:34;6.93;;;2.77;;
11141;SDS011;5625;50.122;19.864;2023-05-08T12:06:03;3.43;;;2.50;;
11141;SDS011;5625;50.122;19.864;2023-05-08T12:08:32;5.80;;;2.37;;
11141;SDS011;5625;50.122;19.864;2023-05-08T12:11:05;4.37;;;2.63;;
11141;SDS011;5625;50.122;19.864;2023-05-08T12:13:33;2.53;;;2.30;;
11141;SDS011;5625;50.122;19.864;2023-05-08T12:16:01;4.83;;;2.37;;
11141;SDS011;5625;50.122;19.864;2023-05-08T12:18:29;2.50;;;2.30;;
11141;SDS011;5625;50.122;19.864;2023-05-08T12:20:58;3.23;;;2.10;;
11141;SDS011;5625;50.122;19.864;2023-05-08T12:23:28;2.20;;;2.10;;
11141;SDS011;5625;50.122;19.864;2023-05-08T12:25:57;3.70;;;2.47;;
11141;SDS011;5625;50.122;19.864;2023-05-08T12:28:26;3.63;;;2.30;;
11141;SDS011;5625;50.122;19.864;2023-05-08T12:30:54;3.10;;;2.10;;
11141;SDS011;5625;50.122;19.864;2023-05-08T12:33:23;2.37;;;2.13;;
11141;SDS011;5625;50.122;19.864;2023-05-08T12:35:51;4.67;;;2.53;;
11141;SDS011;5625;50.122;19.864;2023-05-08T12:38:23;4.30;;;3.03;;
11141;SDS011;5625;50.122;19.864;2023-05-08T12:40:53;3.60;;;2.90;;
11141;SDS011;5625;50.122;19.864;2023-05-08T12:43:29;2.97;;;2.50;;
11141;SDS011;5625;50.122;19.864;2023-05-08T12:45:58;3.33;;;2.40;;
11141;SDS011;5625;50.122;19.864;2023-05-08T12:48:26;3.57;;;2.40;;
11141;SDS011;5625;50.122;19.864;2023-05-08T12:50:59;2.50;;;2.30;;
11141;SDS011;5625;50.122;19.864;2023-05-08T12:53:29;3.17;;;2.40;;
11141;SDS011;5625;50.122;19.864;2023-05-08T12:56:03;3.60;;;2.47;;
11141;SDS011;5625;50.122;19.864;2023-05-08T12:58:32;3.83;;;2.30;;
11141;SDS011;5625;50.122;19.864;2023-05-08T13:01:04;2.83;;;2.27;;
11141;SDS011;5625;50.122;19.864;2023-05-08T13:03:35;4.13;;;2.50;;
11141;SDS011;5625;50.122;19.864;2023-05-08T13:06:04;2.70;;;2.10;;
11141;SDS011;5625;50.122;19.864;2023-05-08T13:08:32;2.70;;;1.97;;
11141;SDS011;5625;50.122;19.864;2023-05-08T13:11:03;4.53;;;2.20;;
11141;SDS011;5625;50.122;19.864;2023-05-08T13:13:33;4.10;;;2.47;;
11141;SDS011;5625;50.122;19.864;2023-05-08T13:16:02;2.30;;;1.90;;
11141;SDS011;5625;50.122;19.864;2023-05-08T13:18:31;2.80;;;2.07;;
11141;SDS011;5625;50.122;19.864;2023-05-08T13:21:01;2.73;;;1.80;;
11141;SDS011;5625;50.122;19.864;2023-05-08T13:23:29;2.97;;;2.20;;
11141;SDS011;5625;50.122;19.864;2023-05-08T13:25:57;3.63;;;2.13;;
11141;SDS011;5625;50.122;19.864;2023-05-08T13:28:26;2.60;;;2.30;;
11141;SDS011;5625;50.122;19.864;2023-05-08T13:30:54;6.37;;;2.40;;
11141;SDS011;5625;50.122;19.864;2023-05-08T13:33:24;3.63;;;1.87;;
11141;SDS011;5625;50.122;19.864;2023-05-08T13:35:54;3.53;;;2.07;;
11141;SDS011;5625;50.122;19.864;2023-05-08T13:38:22;2.30;;;2.10;;
11141;SDS011;5625;50.122;19.864;2023-05-08T13:40:50;2.20;;;2.10;;
11141;SDS011;5625;50.122;19.864;2023-05-08T13:43:19;2.27;;;2.07;;
11141;SDS011;5625;50.122;19.864;2023-05-08T13:45:48;3.37;;;2.00;;
11141;SDS011;5625;50.122;19.864;2023-05-08T13:48:16;5.90;;;1.93;;
11141;SDS011;5625;50.122;19.864;2023-05-08T13:50:45;2.47;;;2.00;;
11141;SDS011;5625;50.122;19.864;2023-05-08T13:53:12;7.10;;;2.10;;
11141;SDS011;5625;50.122;19.864;2023-05-08T13:55:43;4.47;;;2.27;;
11141;SDS011;5625;50.122;19.864;2023-05-08T13:58:11;2.83;;;1.97;;
11141;SDS011;5625;50.122;19.864;2023-05-08T14:00:41;2.23;;;2.03;;
11141;SDS011;5625;50.122;19.864;2023-05-08T14:03:11;3.37;;;1.83;;
11141;SDS011;5625;50.122;19.864;2023-05-08T14:05:40;6.27;;;2.27;;
11141;SDS011;5625;50.122;19.864;2023-05-08T14:08:10;4.83;;;2.10;;
11141;SDS011;5625;50.122;19.864;2023-05-08T14:10:39;3.40;;;2.00;;
11141;SDS011;5625;50.122;19.864;2023-05-08T14:13:07;3.30;;;2.10;;
11141;SDS011;5625;50.122;19.864;2023-05-08T14:15:36;2.93;;;2.00;;
11141;SDS011;5625;50.122;19.864;2023-05-08T14:18:04;2.40;;;2.20;;
11141;SDS011;5625;50.122;19.864;2023-05-08T14:20:33;3.50;;;2.07;;
11141;SDS011;5625;50.122;19.864;2023-05-08T14:23:02;2.93;;;2.40;;
11141;SDS011;5625;50.122;19.864;2023-05-08T14:25:30;3.03;;;2.07;;
11141;SDS011;5625;50.122;19.864;2023-05-08T14:27:57;17.80;;;2.20;;
11141;SDS011;5625;50.122;19.864;2023-05-08T14:30:26;2.93;;;2.10;;
11141;SDS011;5625;50.122;19.864;2023-05-08T14:32:54;3.00;;;2.70;;
11141;SDS011;5625;50.122;19.864;2023-05-08T14:35:24;4.07;;;2.00;;
11141;SDS011;5625;50.122;19.864;2023-05-08T14:37:54;3.67;;;2.30;;
11141;SDS011;5625;50.122;19.864;2023-05-08T14:40:22;8.23;;;2.80;;
11141;SDS011;5625;50.122;19.864;2023-05-08T14:42:50;2.50;;;2.30;;
11141;SDS011;5625;50.122;19.864;2023-05-08T14:45:19;3.93;;;2.30;;
11141;SDS011;5625;50.122;19.864;2023-05-08T14:47:47;2.40;;;2.20;;
11141;SDS011;5625;50.122;19.864;2023-05-08T14:50:15;2.83;;;2.37;;
11141;SDS011;5625;50.122;19.864;2023-05-08T14:52:43;3.50;;;2.30;;
11141;SDS011;5625;50.122;19.864;2023-05-08T14:55:13;3.83;;;2.07;;
11141;SDS011;5625;50.122;19.864;2023-05-08T14:57:46;2.90;;;2.40;;
11141;SDS011;5625;50.122;19.864;2023-05-08T15:00:15;3.73;;;2.43;;
11141;SDS011;5625;50.122;19.864;2023-05-08T15:02:43;4.70;;;2.70;;
11141;SDS011;5625;50.122;19.864;2023-05-08T15:05:11;2.63;;;2.43;;
11141;SDS011;5625;50.122;19.864;2023-05-08T15:07:45;3.27;;;2.30;;
11141;SDS011;5625;50.122;19.864;2023-05-08T15:10:16;4.27;;;2.50;;
11141;SDS011;5625;50.122;19.864;2023-05-08T15:12:45;2.63;;;2.43;;
11141;SDS011;5625;50.122;19.864;2023-05-08T15:15:13;2.77;;;2.23;;
11141;SDS011;5625;50.122;19.864;2023-05-08T15:17:41;2.80;;;2.30;;